sensor_id;sensor_type;location;lat;lon;timestamp;pressure;altitude;pressure_sealevel;temperature;humidity
55490;BME280;44029;52.956;4.772;2023-11-18T00:01:35;102305.72;;;13.93;100.00
55490;BME280;44029;52.956;4.772;2023-11-18T00:04:01;102326.63;;;13.70;100.00
55490;BME280;44029;52.956;4.772;2023-11-18T00:06:26;102317.41;;;13.65;100.00
55490;BME280;44029;52.956;4.772;2023-11-18T00:08:51;102315.09;;;13.62;100.00
55490;BME280;44029;52.956;4.772;2023-11-18T00:11:17;102307.66;;;13.50;100.00
55490;BME280;44029;52.956;4.772;2023-11-18T00:13:44;102311.28;;;13.63;100.00
55490;BME280;44029;52.956;4.772;2023-11-18T00:16:10;102301.56;;;13.60;100.00
55490;BME280;44029;52.956;4.772;2023-11-18T00:18:41;102312.50;;;13.79;100.00
55490;BME280;44029;52.956;4.772;2023-11-18T00:21:07;102306.72;;;13.57;100.00
55490;BME280;44029;52.956;4.772;2023-11-18T00:23:33;102303.91;;;13.45;100.00
55490;BME280;44029;52.956;4.772;2023-11-18T00:25:58;102307.78;;;13.25;100.00
55490;BME280;44029;52.956;4.772;2023-11-18T00:28:24;102299.66;;;13.30;100.00
55490;BME280;44029;52.956;4.772;2023-11-18T00:30:49;102303.31;;;13.24;100.00
55490;BME280;44029;52.956;4.772;2023-11-18T00:33:15;102313.00;;;12.96;100.00
55490;BME280;44029;52.956;4.772;2023-11-18T00:35:40;102305.31;;;13.36;100.00
55490;BME280;44029;52.956;4.772;2023-11-18T00:38:06;102308.38;;;13.27;100.00
55490;BME280;44029;52.956;4.772;2023-11-18T00:40:31;102304.63;;;13.40;100.00
55490;BME280;44029;52.956;4.772;2023-11-18T00:42:57;102295.22;;;13.48;100.00
55490;BME280;44029;52.956;4.772;2023-11-18T00:45:22;102305.00;;;13.44;100.00
55490;BME280;44029;52.956;4.772;2023-11-18T00:47:48;102315.16;;;13.43;100.00
55490;BME280;44029;52.956;4.772;2023-11-18T00:50:14;102309.50;;;13.57;100.00
55490;BME280;44029;52.956;4.772;2023-11-18T00:52:39;102319.50;;;13.51;100.00
55490;BME280;44029;52.956;4.772;2023-11-18T00:55:07;102321.22;;;13.64;100.00
55490;BME280;44029;52.956;4.772;2023-11-18T00:57:34;102320.16;;;13.34;100.00
55490;BME280;44029;52.956;4.772;2023-11-18T00:59:59;102321.03;;;13.28;100.00
55490;BME280;44029;52.956;4.772;2023-11-18T01:02:24;102314.19;;;13.38;100.00
55490;BME280;44029;52.956;4.772;2023-11-18T01:04:50;102310.53;;;13.25;100.00
55490;BME280;44029;52.956;4.772;2023-11-18T01:07:16;102310.97;;;13.22;100.00
55490;BME280;44029;52.956;4.772;2023-11-18T01:09:41;102323.53;;;13.37;100.00
55490;BME280;44029;52.956;4.772;2023-11-18T01:12:06;102312.91;;;13.40;100.00
55490;BME280;44029;52.956;4.772;2023-11-18T01:14:36;102312.97;;;13.33;100.00
55490;BME280;44029;52.956;4.772;2023-11-18T01:17:03;102312.00;;;13.09;100.00
55490;BME280;44029;52.956;4.772;2023-11-18T01:19:28;102313.38;;;13.00;100.00
55490;BME280;44029;52.956;4.772;2023-11-18T01:21:53;102309.78;;;13.00;100.00
55490;BME280;44029;52.956;4.772;2023-11-18T01:24:20;102304.66;;;13.22;100.00
55490;BME280;44029;52.956;4.772;2023-11-18T01:26:47;102308.06;;;13.17;100.00
55490;BME280;44029;52.956;4.772;2023-11-18T01:29:12;102309.78;;;13.00;100.00
55490;BME280;44029;52.956;4.772;2023-11-18T01:31:38;102303.50;;;13.11;100.00
55490;BME280;44029;52.956;4.772;2023-11-18T01:34:06;102303.34;;;13.06;100.00
55490;BME280;44029;52.956;4.772;2023-11-18T01:36:32;102307.31;;;13.10;100.00
55490;BME280;44029;52.956;4.772;2023-11-18T01:38:58;102307.09;;;13.11;100.00
55490;BME280;44029;52.956;4.772;2023-11-18T01:41:23;102309.38;;;13.14;100.00
55490;BME280;44029;52.956;4.772;2023-11-18T01:43:48;102313.28;;;13.25;100.00
55490;BME280;44029;52.956;4.772;2023-11-18T01:46:16;102310.75;;;13.42;100.00
55490;BME280;44029;52.956;4.772;2023-11-18T01:48:43;102317.72;;;13.08;100.00
55490;BME280;44029;52.956;4.772;2023-11-18T01:51:09;102308.22;;;13.41;100.00
55490;BME280;44029;52.956;4.772;2023-11-18T01:53:38;102311.72;;;13.29;100.00
55490;BME280;44029;52.956;4.772;2023-11-18T01:56:06;102311.53;;;13.31;100.00
55490;BME280;44029;52.956;4.772;2023-11-18T01:58:32;102329.06;;;13.30;100.00
55490;BME280;44029;52.956;4.772;2023-11-18T02:00:58;102331.22;;;13.28;100.00
55490;BME280;44029;52.956;4.772;2023-11-18T02:03:23;102323.91;;;13.22;100.00
55490;BME280;44029;52.956;4.772;2023-11-18T02:05:51;102318.63;;;13.20;100.00
55490;BME280;44029;52.956;4.772;2023-11-18T02:08:17;102321.22;;;13.33;100.00
55490;BME280;44029;52.956;4.772;2023-11-18T02:11:00;102316.50;;;13.52;100.00
55490;BME280;44029;52.956;4.772;2023-11-18T02:13:32;102314.78;;;13.70;100.00
55490;BME280;44029;52.956;4.772;2023-11-18T02:15:59;102304.75;;;13.27;100.00
55490;BME280;44029;52.956;4.772;2023-11-18T02:18:26;102315.22;;;13.55;100.00
55490;BME280;44029;52.956;4.772;2023-11-18T02:20:56;102304.47;;;13.65;100.00
55490;BME280;44029;52.956;4.772;2023-11-18T02:23:25;102296.56;;;13.69;100.00
55490;BME280;44029;52.956;4.772;2023-11-18T02:25:54;102295.31;;;13.23;100.00
55490;BME280;44029;52.956;4.772;2023-11-18T02:28:21;102289.56;;;13.43;100.00
55490;BME280;44029;52.956;4.772;2023-11-18T02:30:46;102287.44;;;13.08;100.00
55490;BME280;44029;52.956;4.772;2023-11-18T02:33:18;102279.16;;;13.26;100.00
55490;BME280;44029;52.956;4.772;2023-11-18T02:35:51;102284.19;;;13.48;100.00
55490;BME280;44029;52.956;4.772;2023-11-18T02:38:19;102286.81;;;13.43;100.00
55490;BME280;44029;52.956;4.772;2023-11-18T02:40:47;102282.50;;;13.47;100.00
55490;BME280;44029;52.956;4.772;2023-11-18T02:43:16;102280.25;;;13.44;100.00
55490;BME280;44029;52.956;4.772;2023-11-18T02:45:42;102288.06;;;13.10;100.00
55490;BME280;44029;52.956;4.772;2023-11-18T02:48:09;102291.09;;;13.39;100.00
55490;BME280;44029;52.956;4.772;2023-11-18T02:50:35;102292.16;;;13.38;100.00
55490;BME280;44029;52.956;4.772;2023-11-18T02:53:06;102285.91;;;13.61;100.00
55490;BME280;44029;52.956;4.772;2023-11-18T02:55:34;102281.28;;;13.43;100.00
55490;BME280;44029;52.956;4.772;2023-11-18T02:58:01;102288.03;;;13.28;100.00
55490;BME280;44029;52.956;4.772;2023-11-18T03:00:27;102274.22;;;13.17;100.00
55490;BME280;44029;52.956;4.772;2023-11-18T03:02:53;102264.25;;;13.34;100.00
55490;BME280;44029;52.956;4.772;2023-11-18T03:05:19;102263.41;;;13.03;100.00
55490;BME280;44029;52.956;4.772;2023-11-18T03:07:45;102258.06;;;13.39;100.00
55490;BME280;44029;52.956;4.772;2023-11-18T03:10:14;102257.38;;;12.94;100.00
55490;BME280;44029;52.956;4.772;2023-11-18T03:12:50;102250.56;;;13.46;100.00
55490;BME280;44029;52.956;4.772;2023-11-18T03:15:16;102250.91;;;12.70;100.00
55490;BME280;44029;52.956;4.772;2023-11-18T03:17:46;102247.66;;;13.41;100.00
55490;BME280;44029;52.956;4.772;2023-11-18T03:20:14;102237.59;;;13.34;100.00
55490;BME280;44029;52.956;4.772;2023-11-18T03:22:45;102222.53;;;13.37;100.00
55490;BME280;44029;52.956;4.772;2023-11-18T03:25:13;102220.00;;;13.36;100.00
55490;BME280;44029;52.956;4.772;2023-11-18T03:27:39;102227.47;;;13.28;100.00
55490;BME280;44029;52.956;4.772;2023-11-18T03:30:06;102227.50;;;13.82;100.00
55490;BME280;44029;52.956;4.772;2023-11-18T03:32:32;102215.97;;;13.62;100.00
55490;BME280;44029;52.956;4.772;2023-11-18T03:34:57;102207.69;;;13.38;100.00
55490;BME280;44029;52.956;4.772;2023-11-18T03:37:24;102211.09;;;13.22;100.00
55490;BME280;44029;52.956;4.772;2023-11-18T03:39:51;102197.03;;;13.42;100.00
55490;BME280;44029;52.956;4.772;2023-11-18T03:42:17;102194.09;;;13.55;100.00
55490;BME280;44029;52.956;4.772;2023-11-18T03:44:42;102196.34;;;13.46;100.00
55490;BME280;44029;52.956;4.772;2023-11-18T03:47:08;102192.97;;;13.56;100.00
55490;BME280;44029;52.956;4.772;2023-11-18T03:49:33;102187.34;;;13.51;100.00
55490;BME280;44029;52.956;4.772;2023-11-18T03:51:59;102174.66;;;13.08;100.00
55490;BME280;44029;52.956;4.772;2023-11-18T03:54:24;102178.09;;;13.33;100.00
55490;BME280;44029;52.956;4.772;2023-11-18T03:56:50;102172.28;;;13.11;100.00
55490;BME280;44029;52.956;4.772;2023-11-18T03:59:15;102169.25;;;13.43;100.00
55490;BME280;44029;52.956;4.772;2023-11-18T04:01:40;102176.22;;;13.58;100.00
55490;BME280;44029;52.956;4.772;2023-11-18T04:04:06;102174.81;;;13.55;100.00
55490;BME280;44029;52.956;4.772;2023-11-18T04:06:31;102170.97;;;13.56;100.00
55490;BME280;44029;52.956;4.772;2023-11-18T04:08:57;102162.91;;;13.31;100.00
55490;BME280;44029;52.956;4.772;2023-11-18T04:11:22;102154.66;;;13.01;100.00
55490;BME280;44029;52.956;4.772;2023-11-18T04:13:48;102154.47;;;12.84;100.00
55490;BME280;44029;52.956;4.772;2023-11-18T04:16:14;102155.13;;;13.40;100.00
55490;BME280;44029;52.956;4.772;2023-11-18T04:18:44;102152.75;;;13.43;100.00
55490;BME280;44029;52.956;4.772;2023-11-18T04:21:11;102147.75;;;13.52;100.00
55490;BME280;44029;52.956;4.772;2023-11-18T04:23:37;102146.41;;;13.43;100.00
55490;BME280;44029;52.956;4.772;2023-11-18T04:26:03;102140.22;;;13.83;100.00
55490;BME280;44029;52.956;4.772;2023-11-18T04:28:29;102140.44;;;13.69;100.00
55490;BME280;44029;52.956;4.772;2023-11-18T04:30:55;102138.78;;;13.14;100.00
55490;BME280;44029;52.956;4.772;2023-11-18T04:33:20;102128.63;;;13.15;100.00
55490;BME280;44029;52.956;4.772;2023-11-18T04:35:46;102124.91;;;13.21;100.00
55490;BME280;44029;52.956;4.772;2023-11-18T04:38:12;102120.31;;;13.33;100.00
55490;BME280;44029;52.956;4.772;2023-11-18T04:40:37;102112.38;;;13.25;100.00
55490;BME280;44029;52.956;4.772;2023-11-18T04:43:04;102120.13;;;13.05;100.00
55490;BME280;44029;52.956;4.772;2023-11-18T04:45:30;102117.63;;;13.27;100.00
55490;BME280;44029;52.956;4.772;2023-11-18T04:47:56;102122.72;;;13.65;100.00
55490;BME280;44029;52.956;4.772;2023-11-18T04:50:21;102127.28;;;13.48;100.00
55490;BME280;44029;52.956;4.772;2023-11-18T04:52:47;102121.63;;;13.43;100.00
55490;BME280;44029;52.956;4.772;2023-11-18T04:55:12;102111.59;;;13.37;100.00
55490;BME280;44029;52.956;4.772;2023-11-18T04:57:38;102116.25;;;12.94;100.00
55490;BME280;44029;52.956;4.772;2023-11-18T05:00:05;102124.22;;;13.14;100.00
55490;BME280;44029;52.956;4.772;2023-11-18T05:02:39;102120.78;;;12.88;100.00
55490;BME280;44029;52.956;4.772;2023-11-18T05:05:05;102117.38;;;13.05;100.00
55490;BME280;44029;52.956;4.772;2023-11-18T05:07:31;102119.53;;;13.14;100.00
55490;BME280;44029;52.956;4.772;2023-11-18T05:09:57;102116.88;;;12.96;100.00
55490;BME280;44029;52.956;4.772;2023-11-18T05:12:22;102106.09;;;13.48;100.00
55490;BME280;44029;52.956;4.772;2023-11-18T05:14:47;102099.84;;;13.77;100.00
55490;BME280;44029;52.956;4.772;2023-11-18T05:17:15;102107.00;;;14.01;100.00
55490;BME280;44029;52.956;4.772;2023-11-18T05:19:41;102102.00;;;13.75;100.00
55490;BME280;44029;52.956;4.772;2023-11-18T05:22:06;102099.38;;;13.44;100.00
55490;BME280;44029;52.956;4.772;2023-11-18T05:24:31;102096.41;;;13.46;100.00
55490;BME280;44029;52.956;4.772;2023-11-18T05:26:57;102101.69;;;13.05;100.00
55490;BME280;44029;52.956;4.772;2023-11-18T05:29:27;102097.94;;;13.77;100.00
55490;BME280;44029;52.956;4.772;2023-11-18T05:31:53;102106.44;;;13.40;100.00
55490;BME280;44029;52.956;4.772;2023-11-18T05:34:20;102094.38;;;13.53;100.00
55490;BME280;44029;52.956;4.772;2023-11-18T05:36:49;102099.03;;;13.41;100.00
55490;BME280;44029;52.956;4.772;2023-11-18T05:39:19;102084.16;;;13.89;100.00
55490;BME280;44029;52.956;4.772;2023-11-18T05:41:45;102076.41;;;13.62;100.00
55490;BME280;44029;52.956;4.772;2023-11-18T05:44:15;102059.63;;;13.76;100.00
55490;BME280;44029;52.956;4.772;2023-11-18T05:46:45;102053.28;;;13.63;100.00
55490;BME280;44029;52.956;4.772;2023-11-18T05:49:12;102057.94;;;13.75;100.00
55490;BME280;44029;52.956;4.772;2023-11-18T05:51:39;102048.66;;;13.40;100.00
55490;BME280;44029;52.956;4.772;2023-11-18T05:54:06;102053.97;;;13.23;100.00
55490;BME280;44029;52.956;4.772;2023-11-18T05:56:32;102046.84;;;13.46;100.00
55490;BME280;44029;52.956;4.772;2023-11-18T05:58:57;102048.09;;;13.90;100.00
55490;BME280;44029;52.956;4.772;2023-11-18T06:01:24;102055.69;;;13.71;100.00
55490;BME280;44029;52.956;4.772;2023-11-18T06:03:52;102058.50;;;13.06;100.00
55490;BME280;44029;52.956;4.772;2023-11-18T06:06:18;102052.88;;;12.89;100.00
55490;BME280;44029;52.956;4.772;2023-11-18T06:08:46;102066.72;;;13.48;100.00
55490;BME280;44029;52.956;4.772;2023-11-18T06:11:13;102066.81;;;14.17;100.00
55490;BME280;44029;52.956;4.772;2023-11-18T06:13:44;102072.22;;;14.24;100.00
55490;BME280;44029;52.956;4.772;2023-11-18T06:16:21;102072.03;;;14.02;100.00
55490;BME280;44029;52.956;4.772;2023-11-18T06:18:49;102065.78;;;14.06;100.00
55490;BME280;44029;52.956;4.772;2023-11-18T06:21:28;102069.31;;;13.90;100.00
55490;BME280;44029;52.956;4.772;2023-11-18T06:23:55;102065.41;;;13.62;100.00
55490;BME280;44029;52.956;4.772;2023-11-18T06:26:26;102061.06;;;13.54;100.00
55490;BME280;44029;52.956;4.772;2023-11-18T06:28:52;102058.69;;;13.46;100.00
55490;BME280;44029;52.956;4.772;2023-11-18T06:31:24;102068.88;;;13.46;100.00
55490;BME280;44029;52.956;4.772;2023-11-18T06:33:49;102066.31;;;13.32;100.00
55490;BME280;44029;52.956;4.772;2023-11-18T06:38:42;102060.16;;;12.83;100.00
55490;BME280;44029;52.956;4.772;2023-11-18T06:41:17;102063.56;;;13.21;100.00
55490;BME280;44029;52.956;4.772;2023-11-18T06:43:46;102057.13;;;13.39;100.00
55490;BME280;44029;52.956;4.772;2023-11-18T06:46:25;102046.91;;;13.75;100.00
55490;BME280;44029;52.956;4.772;2023-11-18T06:48:53;102044.66;;;13.24;100.00
55490;BME280;44029;52.956;4.772;2023-11-18T06:51:28;102043.81;;;12.58;100.00
55490;BME280;44029;52.956;4.772;2023-11-18T06:53:54;102046.53;;;12.88;100.00
55490;BME280;44029;52.956;4.772;2023-11-18T06:56:26;102045.16;;;13.57;100.00
55490;BME280;44029;52.956;4.772;2023-11-18T06:58:57;102041.94;;;13.48;100.00
55490;BME280;44029;52.956;4.772;2023-11-18T07:01:26;102040.63;;;13.62;100.00
55490;BME280;44029;52.956;4.772;2023-11-18T07:03:51;102028.38;;;13.58;100.00
55490;BME280;44029;52.956;4.772;2023-11-18T07:06:30;102036.81;;;12.74;100.00
55490;BME280;44029;52.956;4.772;2023-11-18T07:08:56;102021.19;;;12.98;100.00
55490;BME280;44029;52.956;4.772;2023-11-18T07:11:26;102003.28;;;13.43;100.00
55490;BME280;44029;52.956;4.772;2023-11-18T07:13:54;101995.84;;;13.43;100.00
55490;BME280;44029;52.956;4.772;2023-11-18T07:16:23;102005.53;;;13.10;100.00
55490;BME280;44029;52.956;4.772;2023-11-18T07:18:49;101995.59;;;13.21;100.00
55490;BME280;44029;52.956;4.772;2023-11-18T07:21:18;102003.59;;;12.99;100.00
55490;BME280;44029;52.956;4.772;2023-11-18T07:23:44;102000.78;;;12.64;100.00
55490;BME280;44029;52.956;4.772;2023-11-18T07:26:09;101996.28;;;12.81;100.00
55490;BME280;44029;52.956;4.772;2023-11-18T07:28:36;101999.94;;;13.41;100.00
55490;BME280;44029;52.956;4.772;2023-11-18T07:31:01;102002.78;;;13.22;100.00
55490;BME280;44029;52.956;4.772;2023-11-18T07:33:30;102010.19;;;12.86;100.00
55490;BME280;44029;52.956;4.772;2023-11-18T07:35:57;101994.91;;;13.38;100.00
55490;BME280;44029;52.956;4.772;2023-11-18T07:38:23;102002.63;;;12.93;100.00
55490;BME280;44029;52.956;4.772;2023-11-18T07:40:58;101996.56;;;13.62;100.00
55490;BME280;44029;52.956;4.772;2023-11-18T07:43:26;102003.59;;;13.58;100.00
55490;BME280;44029;52.956;4.772;2023-11-18T07:45:57;102002.44;;;13.42;100.00
55490;BME280;44029;52.956;4.772;2023-11-18T07:48:22;102000.88;;;13.46;100.00
55490;BME280;44029;52.956;4.772;2023-11-18T07:50:47;101995.97;;;13.48;100.00
55490;BME280;44029;52.956;4.772;2023-11-18T07:53:13;101984.47;;;13.51;100.00
55490;BME280;44029;52.956;4.772;2023-11-18T07:55:39;101993.41;;;13.70;100.00
55490;BME280;44029;52.956;4.772;2023-11-18T07:58:05;101987.78;;;13.77;100.00
55490;BME280;44029;52.956;4.772;2023-11-18T08:00:41;101985.09;;;13.82;100.00
55490;BME280;44029;52.956;4.772;2023-11-18T08:03:10;101977.56;;;14.18;100.00
55490;BME280;44029;52.956;4.772;2023-11-18T08:05:44;101965.59;;;13.84;100.00
55490;BME280;44029;52.956;4.772;2023-11-18T08:08:13;101955.41;;;13.44;100.00
55490;BME280;44029;52.956;4.772;2023-11-18T08:10:39;101951.75;;;13.67;100.00
55490;BME280;44029;52.956;4.772;2023-11-18T08:13:06;101952.91;;;13.30;100.00
55490;BME280;44029;52.956;4.772;2023-11-18T08:15:37;101935.69;;;13.35;100.00
55490;BME280;44029;52.956;4.772;2023-11-18T08:18:06;101924.31;;;13.31;100.00
55490;BME280;44029;52.956;4.772;2023-11-18T08:20:36;101926.59;;;13.11;100.00
55490;BME280;44029;52.956;4.772;2023-11-18T08:23:05;101939.38;;;12.70;100.00
55490;BME280;44029;52.956;4.772;2023-11-18T08:25:31;101939.00;;;12.90;100.00
55490;BME280;44029;52.956;4.772;2023-11-18T08:28:00;101926.94;;;13.03;100.00
55490;BME280;44029;52.956;4.772;2023-11-18T08:30:26;101909.25;;;12.87;100.00
55490;BME280;44029;52.956;4.772;2023-11-18T08:32:51;101914.38;;;12.95;100.00
55490;BME280;44029;52.956;4.772;2023-11-18T08:35:17;101901.56;;;13.01;100.00
55490;BME280;44029;52.956;4.772;2023-11-18T08:37:43;101901.72;;;12.82;100.00
55490;BME280;44029;52.956;4.772;2023-11-18T08:40:12;101905.63;;;13.33;100.00
55490;BME280;44029;52.956;4.772;2023-11-18T08:42:47;101908.38;;;13.33;100.00
55490;BME280;44029;52.956;4.772;2023-11-18T08:45:25;101913.13;;;13.50;100.00
55490;BME280;44029;52.956;4.772;2023-11-18T08:47:53;101909.81;;;13.48;100.00
55490;BME280;44029;52.956;4.772;2023-11-18T08:50:20;101897.84;;;13.83;100.00
55490;BME280;44029;52.956;4.772;2023-11-18T08:52:49;101888.88;;;13.35;100.00
55490;BME280;44029;52.956;4.772;2023-11-18T08:55:18;101882.50;;;13.46;100.00
55490;BME280;44029;52.956;4.772;2023-11-18T08:57:48;101874.00;;;14.05;100.00
55490;BME280;44029;52.956;4.772;2023-11-18T09:00:17;101876.06;;;13.69;100.00
55490;BME280;44029;52.956;4.772;2023-11-18T09:03:02;101888.31;;;12.86;100.00
55490;BME280;44029;52.956;4.772;2023-11-18T09:05:32;101873.81;;;13.95;100.00
55490;BME280;44029;52.956;4.772;2023-11-18T09:07:58;101864.56;;;13.72;100.00
55490;BME280;44029;52.956;4.772;2023-11-18T09:10:26;101861.63;;;13.22;100.00
55490;BME280;44029;52.956;4.772;2023-11-18T09:12:54;101862.50;;;12.63;100.00
55490;BME280;44029;52.956;4.772;2023-11-18T09:15:20;101863.97;;;13.42;100.00
55490;BME280;44029;52.956;4.772;2023-11-18T09:17:48;101857.31;;;13.66;100.00
55490;BME280;44029;52.956;4.772;2023-11-18T09:20:14;101856.75;;;13.52;100.00
55490;BME280;44029;52.956;4.772;2023-11-18T09:22:44;101864.53;;;13.56;100.00
55490;BME280;44029;52.956;4.772;2023-11-18T09:25:10;101855.00;;;13.75;100.00
55490;BME280;44029;52.956;4.772;2023-11-18T09:27:36;101855.09;;;13.97;100.00
55490;BME280;44029;52.956;4.772;2023-11-18T09:30:02;101842.69;;;14.11;100.00
55490;BME280;44029;52.956;4.772;2023-11-18T09:32:30;101837.91;;;13.90;100.00
55490;BME280;44029;52.956;4.772;2023-11-18T09:34:59;101843.66;;;13.71;100.00
55490;BME280;44029;52.956;4.772;2023-11-18T09:37:24;101845.03;;;13.45;100.00
55490;BME280;44029;52.956;4.772;2023-11-18T09:39:50;101858.88;;;13.62;100.00
55490;BME280;44029;52.956;4.772;2023-11-18T09:42:17;101867.59;;;13.30;100.00
55490;BME280;44029;52.956;4.772;2023-11-18T09:44:44;101860.88;;;13.67;100.00
55490;BME280;44029;52.956;4.772;2023-11-18T09:47:14;101854.13;;;14.54;100.00
55490;BME280;44029;52.956;4.772;2023-11-18T09:49:44;101845.34;;;14.06;100.00
55490;BME280;44029;52.956;4.772;2023-11-18T09:52:16;101844.56;;;13.77;100.00
55490;BME280;44029;52.956;4.772;2023-11-18T09:55:03;101842.91;;;13.93;100.00
55490;BME280;44029;52.956;4.772;2023-11-18T09:57:40;101825.06;;;14.46;100.00
55490;BME280;44029;52.956;4.772;2023-11-18T10:00:08;101834.41;;;14.11;100.00
55490;BME280;44029;52.956;4.772;2023-11-18T10:02:45;101839.34;;;14.09;100.00
55490;BME280;44029;52.956;4.772;2023-11-18T10:05:12;101852.97;;;13.99;100.00
55490;BME280;44029;52.956;4.772;2023-11-18T10:07:41;101848.78;;;14.30;100.00
55490;BME280;44029;52.956;4.772;2023-11-18T10:10:10;101827.06;;;14.34;100.00
55490;BME280;44029;52.956;4.772;2023-11-18T10:12:45;101821.38;;;13.44;100.00
55490;BME280;44029;52.956;4.772;2023-11-18T10:15:14;101815.09;;;13.78;100.00
55490;BME280;44029;52.956;4.772;2023-11-18T10:17:43;101805.09;;;13.43;100.00
55490;BME280;44029;52.956;4.772;2023-11-18T10:20:46;101795.13;;;13.53;100.00
55490;BME280;44029;52.956;4.772;2023-11-18T10:23:14;101788.34;;;13.44;100.00
55490;BME280;44029;52.956;4.772;2023-11-18T10:25:50;101790.63;;;13.36;100.00
55490;BME280;44029;52.956;4.772;2023-11-18T10:28:34;101777.91;;;13.75;100.00
55490;BME280;44029;52.956;4.772;2023-11-18T10:31:10;101779.06;;;12.81;100.00
55490;BME280;44029;52.956;4.772;2023-11-18T10:33:43;101766.41;;;12.56;100.00
55490;BME280;44029;52.956;4.772;2023-11-18T10:36:19;101757.38;;;13.83;100.00
55490;BME280;44029;52.956;4.772;2023-11-18T10:38:50;101756.66;;;12.89;100.00
55490;BME280;44029;52.956;4.772;2023-11-18T10:41:18;101756.84;;;12.47;100.00
55490;BME280;44029;52.956;4.772;2023-11-18T10:43:44;101745.91;;;12.24;100.00
55490;BME280;44029;52.956;4.772;2023-11-18T10:46:11;101728.03;;;12.62;100.00
55490;BME280;44029;52.956;4.772;2023-11-18T10:48:41;101720.91;;;13.01;100.00
55490;BME280;44029;52.956;4.772;2023-11-18T10:51:15;101706.16;;;13.36;100.00
55490;BME280;44029;52.956;4.772;2023-11-18T10:53:44;101710.28;;;12.41;100.00
55490;BME280;44029;52.956;4.772;2023-11-18T10:56:24;101689.63;;;12.26;100.00
55490;BME280;44029;52.956;4.772;2023-11-18T10:59:06;101673.78;;;12.98;100.00
55490;BME280;44029;52.956;4.772;2023-11-18T11:01:36;101670.88;;;13.33;100.00
55490;BME280;44029;52.956;4.772;2023-11-18T11:04:11;101667.91;;;12.65;100.00
55490;BME280;44029;52.956;4.772;2023-11-18T11:06:41;101668.59;;;12.44;100.00
55490;BME280;44029;52.956;4.772;2023-11-18T11:09:08;101668.84;;;12.71;100.00
55490;BME280;44029;52.956;4.772;2023-11-18T11:11:54;101657.56;;;13.13;100.00
55490;BME280;44029;52.956;4.772;2023-11-18T11:14:22;101642.88;;;13.07;100.00
55490;BME280;44029;52.956;4.772;2023-11-18T11:16:52;101638.66;;;12.59;100.00
55490;BME280;44029;52.956;4.772;2023-11-18T11:19:33;101639.69;;;12.99;100.00
55490;BME280;44029;52.956;4.772;2023-11-18T11:22:07;101627.97;;;13.20;100.00
55490;BME280;44029;52.956;4.772;2023-11-18T11:30:42;101629.22;;;13.12;100.00
55490;BME280;44029;52.956;4.772;2023-11-18T11:33:41;101605.09;;;13.31;100.00
55490;BME280;44029;52.956;4.772;2023-11-18T11:36:21;101611.88;;;13.12;100.00
55490;BME280;44029;52.956;4.772;2023-11-18T11:38:52;101602.44;;;13.37;100.00
55490;BME280;44029;52.956;4.772;2023-11-18T11:41:19;101603.03;;;13.10;100.00
55490;BME280;44029;52.956;4.772;2023-11-18T11:43:52;101580.28;;;12.69;100.00
55490;BME280;44029;52.956;4.772;2023-11-18T11:46:24;101573.31;;;12.78;100.00
55490;BME280;44029;52.956;4.772;2023-11-18T11:48:52;101578.66;;;12.68;100.00
55490;BME280;44029;52.956;4.772;2023-11-18T11:51:22;101578.16;;;12.42;100.00
55490;BME280;44029;52.956;4.772;2023-11-18T11:54:29;101580.88;;;13.00;100.00
55490;BME280;44029;52.956;4.772;2023-11-18T11:56:47;101571.16;;;12.80;100.00
55490;BME280;44029;52.956;4.772;2023-11-18T12:02:14;101571.03;;;13.71;100.00
55490;BME280;44029;52.956;4.772;2023-11-18T12:04:47;101559.69;;;13.17;100.00
55490;BME280;44029;52.956;4.772;2023-11-18T12:07:18;101557.41;;;12.80;100.00
55490;BME280;44029;52.956;4.772;2023-11-18T12:09:46;101554.09;;;13.12;100.00
55490;BME280;44029;52.956;4.772;2023-11-18T12:12:19;101537.94;;;13.32;100.00
55490;BME280;44029;52.956;4.772;2023-11-18T12:14:53;101514.94;;;13.22;100.00
55490;BME280;44029;52.956;4.772;2023-11-18T12:17:22;101502.47;;;12.51;100.00
55490;BME280;44029;52.956;4.772;2023-11-18T12:19:48;101506.41;;;12.89;100.00
55490;BME280;44029;52.956;4.772;2023-11-18T12:30:05;101471.97;;;13.38;100.00
55490;BME280;44029;52.956;4.772;2023-11-18T12:32:57;101459.06;;;14.04;100.00
55490;BME280;44029;52.956;4.772;2023-11-18T12:41:36;101438.66;;;13.00;100.00
55490;BME280;44029;52.956;4.772;2023-11-18T12:47:01;101417.66;;;13.11;100.00
55490;BME280;44029;52.956;4.772;2023-11-18T12:49:41;101417.28;;;13.24;100.00
55490;BME280;44029;52.956;4.772;2023-11-18T12:52:08;101412.56;;;13.03;100.00
55490;BME280;44029;52.956;4.772;2023-11-18T12:54:34;101408.66;;;12.99;100.00
55490;BME280;44029;52.956;4.772;2023-11-18T12:57:03;101401.47;;;13.31;100.00
55490;BME280;44029;52.956;4.772;2023-11-18T12:59:33;101397.00;;;12.91;100.00
55490;BME280;44029;52.956;4.772;2023-11-18T13:01:58;101396.78;;;13.15;100.00
55490;BME280;44029;52.956;4.772;2023-11-18T13:04:27;101398.31;;;13.06;100.00
55490;BME280;44029;52.956;4.772;2023-11-18T13:06:53;101376.81;;;13.03;100.00
55490;BME280;44029;52.956;4.772;2023-11-18T13:09:20;101377.47;;;13.10;100.00
55490;BME280;44029;52.956;4.772;2023-11-18T13:12:02;101357.19;;;13.60;100.00
55490;BME280;44029;52.956;4.772;2023-11-18T13:14:35;101361.81;;;12.93;100.00
55490;BME280;44029;52.956;4.772;2023-11-18T13:17:09;101333.69;;;13.08;100.00